upcoming events


Flight Radar

Available data for FALA from the past 2 hours
LANSERIA (CIV/MI
Metar
FALA 250300Z 14004KT 110V180 CAVOK 13/11 Q1021 NOSIG

03:00 UTC

Wind: 140° 4kt

Visibility:

Sky:

Temp: 13 deg C / 55.4 deg F

Dewpoint: 11 deg C / 51.8 deg F

Pressure: 1021 hPa

TAF
TAF FALA 242200Z 2500/2524 05011KT 9999 SCT040 TEMPO 2503/2508 3000 TSRA BKN015 FEW035CB PROB40 TEMPO 2509/2516 5000 TSRA FEW040CB BECMG 2511/2513 12009KT BECMG 2517/2519 03013KT CAVOK TX17/2513Z TN12/2504Z

ABSOLUTE AVIATION GROUP

WITH YOU FOR THE JOURNEY

Pin It on Pinterest

Share This